Time;durP1;ratioP1;P1;durP2;ratioP2;P2;SDS_P1;SDS_P2;PMS_P1;PMS_P2;Temp;Humidity;BMP_temperature;BMP_pressure;BME280_temperature;BME280_humidity;BME280_pressure;Samples;Min_cycle;Max_cycle;Signal;HPM_P1;HPM_P2
2022/09/03 00:00:08;;;;;;;;;;;;;;;;;;2123600;28;19924;-46
2022/09/03 00:01:09;;;;;;;;;;;;;;;;;;2123666;28;20362;-46
2022/09/03 00:02:10;;;;;;;;;;;;;;;;;;2123677;28;20022;-46
2022/09/03 00:03:11;;;;;;;;;;;;;;;;;;2123753;28;19927;-46
2022/09/03 00:04:12;;;;;;;;;;;;;;;;;;2123655;28;19923;-45
2022/09/03 00:05:13;;;;;;;;;;;;;;;;;;2123778;28;19965;-46
2022/09/03 00:06:15;;;;;;;;;;;;;;;;;;2123535;27;19930;-45
2022/09/03 00:07:16;;;;;;;;;;;;;;;;;;2123757;28;19929;-45
2022/09/03 00:08:20;;;;;;;;;;;;;;;;;;2123727;28;20014;-46
2022/09/03 00:09:20;;;;;;;;;;;;;;;;;;2123619;28;19930;-45
2022/09/03 00:10:21;;;;;;;;;;;;;;;;;;2123580;28;19927;-46
2022/09/03 00:11:23;;;;;;;;;;;;;;;;;;2123271;27;20022;-46
2022/09/03 00:12:23;;;;;;;;;;;;;;;;;;2123791;28;19969;-46
2022/09/03 00:13:24;;;;;;;;;;;;;;;;;;2123424;28;20319;-46
2022/09/03 00:14:25;;;;;;;;;;;;;;;;;;2123745;28;19942;-46
2022/09/03 00:15:26;;;;;;;;;;;;;;;;;;2123649;28;19943;-45
2022/09/03 00:16:27;;;;;;;;;;;;;;;;;;2123557;27;20002;-46
2022/09/03 00:17:28;;;;;;;;;;;;;;;;;;2123678;28;19923;-46
2022/09/03 00:18:29;;;;;;;;;;;;;;;;;;2123659;28;20027;-45
2022/09/03 00:19:30;;;;;;;;;;;;;;;;;;2123788;28;20420;-46
2022/09/03 00:20:31;;;;;;;;;;;;;;;;;;2123417;28;20402;-46
2022/09/03 00:21:31;;;;;;;;;;;;;;;;;;2123545;27;20018;-46
2022/09/03 00:22:32;;;;;;;;;;;;;;;;;;2123354;28;19923;-45
2022/09/03 00:23:33;;;;;;;;;;;;;;;;;;2123411;28;20376;-45
2022/09/03 00:24:34;;;;;;;;;;;;;;;;;;2123643;28;19966;-43
2022/09/03 00:25:35;;;;;;;;;;;;;;;;;;2123558;28;19962;-44
2022/09/03 00:26:36;;;;;;;;;;;;;;;;;;2123323;27;19924;-43
2022/09/03 00:27:37;;;;;;;;;;;;;;;;;;2123636;28;19924;-44
2022/09/03 00:28:37;;;;;;;;;;;;;;;;;;2123513;28;20451;-44
2022/09/03 00:29:38;;;;;;;;;;;;;;;;;;2123614;28;19937;-44
2022/09/03 00:30:40;;;;;;;;;;;;;;;;;;2123476;28;20033;-44
2022/09/03 00:31:41;;;;;;;;;;;;;;;;;;2123303;27;20018;-44
2022/09/03 00:32:46;;;;;;;;;;;;;;;;;;2123550;28;19968;-43
2022/09/03 00:33:47;;;;;;;;;;;;;;;;;;2129965;27;19958;-44
2022/09/03 00:34:48;;;;;;;;;;;;;;;;;;2132013;27;19923;-43
2022/09/03 00:35:49;;;;;;;;;;;;;;;;;;2131775;27;19927;-44
2022/09/03 00:36:49;;;;;;;;;;;;;;;;;;2131953;27;20423;-43
2022/09/03 00:37:50;;;;;;;;;;;;;;;;;;2131953;27;19959;-43
2022/09/03 00:38:51;;;;;;;;;;;;;;;;;;2132076;27;19962;-44
2022/09/03 00:39:53;;;;;;;;;;;;;;;;;;2132054;27;20013;-44
2022/09/03 00:40:53;;;;;;;;;;;;;;;;;;2132021;27;19927;-44
2022/09/03 00:41:57;;;;;;;;;;;;;;;;;;2131812;27;20317;-45
2022/09/03 00:42:58;;;;;;;;;;;;;;;;;;2131944;27;20317;-44
2022/09/03 00:44:00;;;;;;;;;;;;;;;;;;2131833;27;20014;-43
2022/09/03 00:45:01;;;;;;;;;;;;;;;;;;2131924;27;19962;-44
2022/09/03 00:46:05;;;;;;;;;;;;;;;;;;2132032;27;20026;-45
2022/09/03 00:47:06;;;;;;;;;;;;;;;;;;2131695;27;19923;-43
2022/09/03 00:48:07;;;;;;;;;;;;;;;;;;2131888;27;19923;-43
2022/09/03 00:49:08;;;;;;;;;;;;;;;;;;2131978;27;19927;-44
2022/09/03 00:50:10;;;;;;;;;;;;;;;;;;2131792;27;19966;-44
2022/09/03 00:51:11;;;;;;;;;;;;;;;;;;2131898;27;20025;-43
2022/09/03 00:52:12;;;;;;;;;;;;;;;;;;2131851;27;20010;-44
2022/09/03 00:53:13;;;;;;;;;;;;;;;;;;2131824;27;19923;-44
2022/09/03 00:54:14;;;;;;;;;;;;;;;;;;2131792;27;19923;-44
2022/09/03 00:55:14;;;;;;;;;;;;;;;;;;2131899;27;19976;-45
2022/09/03 00:56:15;;;;;;;;;;;;;;;;;;2131640;27;19929;-44
2022/09/03 00:57:16;;;;;;;;;;;;;;;;;;2131903;27;19981;-43
2022/09/03 00:58:17;;;;;;;;;;;;;;;;;;2131888;27;19988;-44
2022/09/03 00:59:18;;;;;;;;;;;;;;;;;;2131996;27;20060;-43
2022/09/03 01:00:19;;;;;;;;;;;;;;;;;;2132118;27;19927;-46
2022/09/03 01:01:20;;;;;;;;;;;;;;;;;;2131869;27;19929;-48
2022/09/03 01:02:21;;;;;;;;;;;;;;;;;;2131629;27;20018;-45
2022/09/03 01:03:22;;;;;;;;;;;;;;;;;;2131791;27;20383;-44
2022/09/03 01:04:23;;;;;;;;;;;;;;;;;;2131903;27;20034;-44
2022/09/03 01:05:25;;;;;;;;;;;;;;;;;;2131690;27;20382;-43
2022/09/03 01:06:26;;;;;;;;;;;;;;;;;;2131934;27;20005;-45
2022/09/03 01:07:29;;;;;;;;;;;;;;;;;;2131882;27;20005;-44
2022/09/03 01:08:31;;;;;;;;;;;;;;;;;;2131852;27;19930;-44
2022/09/03 01:09:32;;;;;;;;;;;;;;;;;;2131306;27;20014;-43
2022/09/03 01:10:33;;;;;;;;;;;;;;;;;;2131767;27;20347;-44
2022/09/03 01:11:34;;;;;;;;;;;;;;;;;;2126497;27;20311;-44
2022/09/03 01:12:35;;;;;;;;;;;;;;;;;;2123193;28;19927;-43
2022/09/03 01:13:35;;;;;;;;;;;;;;;;;;2123324;28;19923;-45
2022/09/03 01:14:36;;;;;;;;;;;;;;;;;;2123292;28;20018;-43
2022/09/03 01:15:37;;;;;;;;;;;;;;;;;;2123410;28;20423;-44
2022/09/03 01:16:38;;;;;;;;;;;;;;;;;;2123016;27;19963;-44
2022/09/03 01:17:39;;;;;;;;;;;;;;;;;;2123241;28;19923;-44
2022/09/03 01:18:40;;;;;;;;;;;;;;;;;;2123174;28;20400;-44
2022/09/03 01:19:41;;;;;;;;;;;;;;;;;;2123219;28;20348;-44
2022/09/03 01:20:42;;;;;;;;;;;;;;;;;;2123135;28;20006;-44
2022/09/03 01:21:42;;;;;;;;;;;;;;;;;;2123213;27;20018;-44
2022/09/03 01:22:44;;;;;;;;;;;;;;;;;;2123092;28;19955;-43
2022/09/03 01:23:44;;;;;;;;;;;;;;;;;;2123183;28;20257;-43
2022/09/03 01:24:45;;;;;;;;;;;;;;;;;;2123311;28;20315;-44
2022/09/03 01:25:46;;;;;;;;;;;;;;;;;;2123332;28;19969;-47
2022/09/03 01:26:47;;;;;;;;;;;;;;;;;;2123180;27;19923;-46
2022/09/03 01:27:48;;;;;;;;;;;;;;;;;;2123136;28;19930;-45
2022/09/03 01:28:54;;;;;;;;;;;;;;;;;;2123386;28;19989;-46
2022/09/03 01:29:54;;;;;;;;;;;;;;;;;;2123080;27;19958;-46
2022/09/03 01:30:55;;;;;;;;;;;;;;;;;;2123091;28;19923;-45
2022/09/03 01:31:56;;;;;;;;;;;;;;;;;;2129461;27;19923;-44
2022/09/03 01:32:57;;;;;;;;;;;;;;;;;;2131802;27;20379;-44
2022/09/03 01:33:58;;;;;;;;;;;;;;;;;;2131658;27;19923;-44
2022/09/03 01:34:59;;;;;;;;;;;;;;;;;;2131809;27;19923;-44
2022/09/03 01:36:00;;;;;;;;;;;;;;;;;;2131591;27;20006;-43
2022/09/03 01:37:01;;;;;;;;;;;;;;;;;;2131520;27;20024;-45
2022/09/03 01:38:01;;;;;;;;;;;;;;;;;;2131747;27;20441;-44
2022/09/03 01:39:02;;;;;;;;;;;;;;;;;;2131583;27;19923;-44
2022/09/03 01:40:03;;;;;;;;;;;;;;;;;;2131751;27;20026;-44
2022/09/03 01:42:20;;;;;;;;;;;;;;;;;;2130751;27;20392;-44
2022/09/03 01:43:21;;;;;;;;;;;;;;;;;;2131592;27;19937;-45
2022/09/03 01:44:22;;;;;;;;;;;;;;;;;;2131494;27;19923;-44
2022/09/03 01:45:23;;;;;;;;;;;;;;;;;;2131511;27;20006;-44
2022/09/03 01:46:24;;;;;;;;;;;;;;;;;;2131654;27;20397;-44
2022/09/03 01:47:25;;;;;;;;;;;;;;;;;;2131660;27;19924;-44
2022/09/03 01:48:26;;;;;;;;;;;;;;;;;;2131433;27;20400;-44
2022/09/03 01:49:27;;;;;;;;;;;;;;;;;;2131706;27;19953;-44
2022/09/03 01:50:28;;;;;;;;;;;;;;;;;;2131742;27;20299;-45
2022/09/03 01:51:29;;;;;;;;;;;;;;;;;;2131589;27;20018;-46
2022/09/03 01:52:30;;;;;;;;;;;;;;;;;;2131509;27;19923;-46
2022/09/03 01:53:31;;;;;;;;;;;;;;;;;;2131611;27;20493;-46
2022/09/03 01:54:33;;;;;;;;;;;;;;;;;;2131624;27;19927;-46
2022/09/03 01:55:34;;;;;;;;;;;;;;;;;;2131548;27;20014;-45
2022/09/03 01:56:35;;;;;;;;;;;;;;;;;;2131305;27;19934;-46
2022/09/03 01:57:36;;;;;;;;;;;;;;;;;;2131601;27;20006;-45
2022/09/03 01:58:37;;;;;;;;;;;;;;;;;;2131532;27;19923;-45
2022/09/03 01:59:38;;;;;;;;;;;;;;;;;;2131486;27;20080;-46
2022/09/03 02:00:39;;;;;;;;;;;;;;;;;;2131725;27;20484;-46
2022/09/03 02:01:40;;;;;;;;;;;;;;;;;;2131433;27;19990;-46
2022/09/03 02:02:42;;;;;;;;;;;;;;;;;;2131613;27;19927;-45
2022/09/03 02:03:43;;;;;;;;;;;;;;;;;;2131498;27;19930;-45
2022/09/03 02:04:45;;;;;;;;;;;;;;;;;;2131501;27;19924;-45
2022/09/03 02:05:46;;;;;;;;;;;;;;;;;;2131474;27;19923;-46
2022/09/03 02:06:47;;;;;;;;;;;;;;;;;;2131434;27;19936;-45
2022/09/03 02:07:48;;;;;;;;;;;;;;;;;;2131454;27;20299;-45
2022/09/03 02:08:49;;;;;;;;;;;;;;;;;;2131571;27;19923;-46
2022/09/03 02:09:50;;;;;;;;;;;;;;;;;;2131507;27;20061;-46
2022/09/03 02:10:51;;;;;;;;;;;;;;;;;;2131468;27;20378;-46
2022/09/03 02:11:52;;;;;;;;;;;;;;;;;;2131139;27;19926;-46
2022/09/03 02:12:53;;;;;;;;;;;;;;;;;;2131356;27;19930;-46
2022/09/03 02:13:54;;;;;;;;;;;;;;;;;;2131446;27;20420;-45
2022/09/03 02:14:55;;;;;;;;;;;;;;;;;;2131433;27;19944;-46
2022/09/03 02:15:56;;;;;;;;;;;;;;;;;;2131306;27;20404;-47
2022/09/03 02:16:56;;;;;;;;;;;;;;;;;;2131359;27;20325;-46
2022/09/03 02:17:58;;;;;;;;;;;;;;;;;;2131596;27;19923;-47
2022/09/03 02:18:59;;;;;;;;;;;;;;;;;;2131296;27;20447;-46
2022/09/03 02:20:00;;;;;;;;;;;;;;;;;;2131495;27;19923;-45
2022/09/03 02:21:01;;;;;;;;;;;;;;;;;;2131481;27;20394;-45
2022/09/03 02:22:02;;;;;;;;;;;;;;;;;;2132459;27;19941;-46
2022/09/03 02:23:03;;;;;;;;;;;;;;;;;;2132826;27;20025;-45
2022/09/03 02:24:04;;;;;;;;;;;;;;;;;;2132842;27;19930;-45
2022/09/03 02:25:04;;;;;;;;;;;;;;;;;;2132758;27;19923;-45
2022/09/03 02:26:06;;;;;;;;;;;;;;;;;;2132978;27;19923;-46
2022/09/03 02:27:06;;;;;;;;;;;;;;;;;;2132872;27;19997;-45
2022/09/03 02:28:07;;;;;;;;;;;;;;;;;;2132608;27;20376;-46
2022/09/03 02:29:16;;;;;;;;;;;;;;;;;;2132985;27;19923;-46
2022/09/03 02:30:17;;;;;;;;;;;;;;;;;;2132784;27;20386;-45
2022/09/03 02:31:18;;;;;;;;;;;;;;;;;;2132780;27;20389;-46
2022/09/03 02:32:19;;;;;;;;;;;;;;;;;;2132765;27;19966;-46
2022/09/03 02:33:19;;;;;;;;;;;;;;;;;;2132827;27;20353;-45
2022/09/03 02:34:20;;;;;;;;;;;;;;;;;;2132974;27;19963;-46
2022/09/03 02:35:21;;;;;;;;;;;;;;;;;;2132845;27;20014;-45
2022/09/03 02:36:22;;;;;;;;;;;;;;;;;;2132640;27;19924;-46
2022/09/03 02:37:23;;;;;;;;;;;;;;;;;;2132795;27;19962;-46
2022/09/03 02:38:24;;;;;;;;;;;;;;;;;;2132892;27;19944;-47
2022/09/03 02:39:27;;;;;;;;;;;;;;;;;;2132761;27;20283;-46
2022/09/03 02:40:28;;;;;;;;;;;;;;;;;;2133017;27;19923;-45
2022/09/03 02:41:30;;;;;;;;;;;;;;;;;;2132817;27;20010;-47
2022/09/03 02:42:31;;;;;;;;;;;;;;;;;;2132660;27;19923;-45
2022/09/03 02:43:32;;;;;;;;;;;;;;;;;;2132951;27;20318;-46
2022/09/03 02:44:33;;;;;;;;;;;;;;;;;;2132690;27;19967;-45
2022/09/03 02:45:35;;;;;;;;;;;;;;;;;;2132644;27;20026;-45
2022/09/03 02:46:36;;;;;;;;;;;;;;;;;;2132655;27;19960;-48
2022/09/03 02:47:37;;;;;;;;;;;;;;;;;;2132869;27;20018;-46
2022/09/03 02:48:38;;;;;;;;;;;;;;;;;;2132657;27;20442;-46
2022/09/03 02:49:38;;;;;;;;;;;;;;;;;;2132746;27;20418;-46
2022/09/03 02:50:39;;;;;;;;;;;;;;;;;;2132788;27;20244;-46
2022/09/03 02:51:40;;;;;;;;;;;;;;;;;;2132686;27;20009;-46
2022/09/03 02:52:41;;;;;;;;;;;;;;;;;;2133040;27;19927;-44
2022/09/03 02:53:42;;;;;;;;;;;;;;;;;;2132862;27;20009;-45
2022/09/03 02:54:44;;;;;;;;;;;;;;;;;;2132717;27;19923;-45
2022/09/03 02:55:45;;;;;;;;;;;;;;;;;;2132638;27;19966;-43
2022/09/03 02:56:48;;;;;;;;;;;;;;;;;;2132727;27;19923;-44
2022/09/03 02:57:49;;;;;;;;;;;;;;;;;;2132654;27;20018;-44
2022/09/03 02:58:50;;;;;;;;;;;;;;;;;;2132644;27;20401;-45
2022/09/03 02:59:50;;;;;;;;;;;;;;;;;;2132651;27;19959;-44
2022/09/03 03:00:51;;;;;;;;;;;;;;;;;;2132753;27;19967;-44
2022/09/03 03:01:52;;;;;;;;;;;;;;;;;;2132555;27;19923;-44
2022/09/03 03:02:53;;;;;;;;;;;;;;;;;;2132688;27;20013;-44
2022/09/03 03:03:54;;;;;;;;;;;;;;;;;;2132724;27;19977;-44
2022/09/03 03:04:55;;;;;;;;;;;;;;;;;;2132649;27;20099;-44
2022/09/03 03:05:56;;;;;;;;;;;;;;;;;;2132597;27;19944;-45
2022/09/03 03:06:57;;;;;;;;;;;;;;;;;;2132463;27;19945;-44
2022/09/03 03:07:58;;;;;;;;;;;;;;;;;;2132710;27;20049;-45
2022/09/03 03:09:00;;;;;;;;;;;;;;;;;;2132539;27;19976;-44
2022/09/03 03:10:01;;;;;;;;;;;;;;;;;;2132726;27;20017;-44
2022/09/03 03:11:02;;;;;;;;;;;;;;;;;;2132169;27;20018;-45
2022/09/03 03:12:02;;;;;;;;;;;;;;;;;;2124014;27;20010;-45
2022/09/03 03:13:03;;;;;;;;;;;;;;;;;;2123894;28;20393;-44
2022/09/03 03:14:04;;;;;;;;;;;;;;;;;;2124101;28;19924;-44
2022/09/03 03:15:05;;;;;;;;;;;;;;;;;;2124084;28;19954;-45
2022/09/03 03:16:06;;;;;;;;;;;;;;;;;;2123815;28;20006;-44
2022/09/03 03:17:07;;;;;;;;;;;;;;;;;;2124068;27;19924;-44
2022/09/03 03:18:10;;;;;;;;;;;;;;;;;;2123963;28;20014;-44
2022/09/03 03:19:11;;;;;;;;;;;;;;;;;;2123878;28;20405;-45
2022/09/03 03:20:12;;;;;;;;;;;;;;;;;;2123981;28;19984;-44
2022/09/03 03:21:13;;;;;;;;;;;;;;;;;;2124022;27;19962;-44
2022/09/03 03:22:14;;;;;;;;;;;;;;;;;;2123680;27;20516;-46
2022/09/03 03:23:15;;;;;;;;;;;;;;;;;;2123927;28;19923;-44
2022/09/03 03:24:15;;;;;;;;;;;;;;;;;;2128730;27;20432;-44
2022/09/03 03:25:16;;;;;;;;;;;;;;;;;;2132572;27;20022;-44
2022/09/03 03:26:17;;;;;;;;;;;;;;;;;;2132523;27;20378;-44
2022/09/03 03:27:19;;;;;;;;;;;;;;;;;;2132464;27;19965;-43
2022/09/03 03:28:20;;;;;;;;;;;;;;;;;;2132499;27;20010;-44
2022/09/03 03:29:21;;;;;;;;;;;;;;;;;;2132479;27;19931;-44
2022/09/03 03:30:22;;;;;;;;;;;;;;;;;;2132599;27;20033;-44
2022/09/03 03:31:23;;;;;;;;;;;;;;;;;;2132344;27;20076;-44
2022/09/03 03:32:23;;;;;;;;;;;;;;;;;;2132191;27;19927;-44
2022/09/03 03:33:24;;;;;;;;;;;;;;;;;;2132469;27;20026;-44
2022/09/03 03:34:26;;;;;;;;;;;;;;;;;;2132640;27;19987;-44
2022/09/03 03:35:26;;;;;;;;;;;;;;;;;;2132449;27;20007;-44
2022/09/03 03:36:27;;;;;;;;;;;;;;;;;;2132398;27;19923;-44
2022/09/03 03:37:28;;;;;;;;;;;;;;;;;;2132638;27;19972;-44
2022/09/03 03:38:29;;;;;;;;;;;;;;;;;;2132444;27;20006;-44
2022/09/03 03:39:30;;;;;;;;;;;;;;;;;;2132386;27;20252;-45
2022/09/03 03:40:31;;;;;;;;;;;;;;;;;;2132391;27;19958;-44
2022/09/03 03:41:32;;;;;;;;;;;;;;;;;;2132749;27;20005;-42
2022/09/03 03:42:33;;;;;;;;;;;;;;;;;;2132436;27;19958;-44
2022/09/03 03:43:34;;;;;;;;;;;;;;;;;;2132471;27;19973;-44
2022/09/03 03:44:35;;;;;;;;;;;;;;;;;;2132528;27;19927;-44
2022/09/03 03:45:36;;;;;;;;;;;;;;;;;;2132395;27;20018;-44
2022/09/03 03:46:37;;;;;;;;;;;;;;;;;;2132250;27;19923;-44
2022/09/03 03:47:37;;;;;;;;;;;;;;;;;;2132307;27;20532;-45
2022/09/03 03:48:38;;;;;;;;;;;;;;;;;;2132773;27;19959;-45
2022/09/03 03:49:39;;;;;;;;;;;;;;;;;;2132421;27;19923;-47
2022/09/03 03:50:40;;;;;;;;;;;;;;;;;;2132332;27;19983;-46
2022/09/03 03:51:41;;;;;;;;;;;;;;;;;;2132185;27;20449;-46
2022/09/03 03:52:42;;;;;;;;;;;;;;;;;;2132264;27;19927;-46
2022/09/03 03:53:43;;;;;;;;;;;;;;;;;;2132353;27;20013;-47
2022/09/03 03:54:44;;;;;;;;;;;;;;;;;;2132403;27;19923;-45
2022/09/03 03:55:45;;;;;;;;;;;;;;;;;;2132299;27;20010;-46
2022/09/03 03:56:46;;;;;;;;;;;;;;;;;;2132257;27;20424;-46
2022/09/03 03:57:55;;;;;;;;;;;;;;;;;;2132330;27;19930;-46
2022/09/03 03:58:56;;;;;;;;;;;;;;;;;;2132300;27;19930;-47
2022/09/03 03:59:57;;;;;;;;;;;;;;;;;;2132391;27;20022;-46
2022/09/03 04:00:58;;;;;;;;;;;;;;;;;;2132183;27;20376;-46
2022/09/03 04:01:59;;;;;;;;;;;;;;;;;;2132261;27;19923;-46
2022/09/03 04:03:00;;;;;;;;;;;;;;;;;;2132266;27;19923;-46
2022/09/03 04:04:01;;;;;;;;;;;;;;;;;;2132519;27;20002;-45
2022/09/03 04:05:02;;;;;;;;;;;;;;;;;;2132343;27;19923;-46
2022/09/03 04:06:03;;;;;;;;;;;;;;;;;;2132337;27;20022;-46
2022/09/03 04:07:04;;;;;;;;;;;;;;;;;;2132217;27;20018;-46
2022/09/03 04:08:05;;;;;;;;;;;;;;;;;;2132130;27;20328;-45
2022/09/03 04:09:06;;;;;;;;;;;;;;;;;;2132336;27;19954;-45
2022/09/03 04:10:07;;;;;;;;;;;;;;;;;;2132183;27;19924;-46
2022/09/03 04:11:08;;;;;;;;;;;;;;;;;;2132122;27;20320;-46
2022/09/03 04:12:09;;;;;;;;;;;;;;;;;;2132077;27;20006;-46
2022/09/03 04:13:10;;;;;;;;;;;;;;;;;;2132361;27;19950;-45
2022/09/03 04:14:11;;;;;;;;;;;;;;;;;;2132346;27;20006;-45
2022/09/03 04:15:12;;;;;;;;;;;;;;;;;;2132287;27;20415;-46
2022/09/03 04:16:13;;;;;;;;;;;;;;;;;;2132067;27;19963;-44
2022/09/03 04:17:14;;;;;;;;;;;;;;;;;;2132095;27;19923;-45
2022/09/03 04:18:15;;;;;;;;;;;;;;;;;;2132003;27;20021;-44
2022/09/03 04:19:16;;;;;;;;;;;;;;;;;;2132128;27;19930;-44
2022/09/03 04:20:16;;;;;;;;;;;;;;;;;;2131943;27;20022;-45
2022/09/03 04:21:17;;;;;;;;;;;;;;;;;;2132046;27;19923;-45
2022/09/03 04:22:19;;;;;;;;;;;;;;;;;;2132151;27;19953;-44
2022/09/03 04:23:21;;;;;;;;;;;;;;;;;;2132011;27;20427;-44
2022/09/03 04:24:22;;;;;;;;;;;;;;;;;;2132041;27;19956;-44
2022/09/03 04:25:23;;;;;;;;;;;;;;;;;;2132090;27;20018;-44
2022/09/03 04:26:23;;;;;;;;;;;;;;;;;;2132015;27;19988;-44
2022/09/03 04:27:24;;;;;;;;;;;;;;;;;;2132131;27;20375;-44
2022/09/03 04:28:25;;;;;;;;;;;;;;;;;;2132153;27;20309;-44
2022/09/03 04:29:29;;;;;;;;;;;;;;;;;;2131888;27;20017;-45
2022/09/03 04:30:30;;;;;;;;;;;;;;;;;;2132038;27;20349;-44
2022/09/03 04:31:31;;;;;;;;;;;;;;;;;;2131961;27;19923;-46
2022/09/03 04:33:53;;;;;;;;;;;;;;;;;;2132173;27;19958;-44
2022/09/03 04:34:54;;;;;;;;;;;;;;;;;;2131971;27;20386;-44
2022/09/03 04:35:55;;;;;;;;;;;;;;;;;;2131810;27;19975;-46
2022/09/03 04:36:57;;;;;;;;;;;;;;;;;;2131828;27;19923;-46
2022/09/03 04:37:58;;;;;;;;;;;;;;;;;;2132003;27;20479;-45
2022/09/03 04:38:58;;;;;;;;;;;;;;;;;;2132121;27;20096;-46
2022/09/03 04:39:59;;;;;;;;;;;;;;;;;;2132047;27;20048;-45
2022/09/03 04:41:00;;;;;;;;;;;;;;;;;;2132018;27;19934;-46
2022/09/03 04:42:01;;;;;;;;;;;;;;;;;;2132048;27;20034;-46
2022/09/03 04:43:02;;;;;;;;;;;;;;;;;;2131962;27;20268;-46
2022/09/03 04:44:03;;;;;;;;;;;;;;;;;;2131356;27;19967;-45
2022/09/03 04:45:04;;;;;;;;;;;;;;;;;;2132002;27;19969;-46
2022/09/03 04:46:05;;;;;;;;;;;;;;;;;;2131929;27;19923;-46
2022/09/03 04:47:06;;;;;;;;;;;;;;;;;;2131996;27;19930;-47
2022/09/03 04:48:09;;;;;;;;;;;;;;;;;;2131898;27;19923;-45
2022/09/03 04:49:10;;;;;;;;;;;;;;;;;;2132061;27;20014;-46
2022/09/03 04:50:12;;;;;;;;;;;;;;;;;;2132197;27;19923;-44
2022/09/03 04:51:13;;;;;;;;;;;;;;;;;;2131703;27;20022;-44
2022/09/03 04:52:14;;;;;;;;;;;;;;;;;;2131996;27;20017;-45
2022/09/03 04:53:15;;;;;;;;;;;;;;;;;;2132070;27;20009;-44
2022/09/03 04:54:16;;;;;;;;;;;;;;;;;;2131862;27;20017;-44
2022/09/03 04:55:18;;;;;;;;;;;;;;;;;;2131992;27;19923;-45
2022/09/03 04:56:19;;;;;;;;;;;;;;;;;;2131771;27;19945;-45
2022/09/03 04:57:20;;;;;;;;;;;;;;;;;;2131787;27;20442;-44
2022/09/03 04:58:21;;;;;;;;;;;;;;;;;;2131982;27;19962;-44
2022/09/03 04:59:22;;;;;;;;;;;;;;;;;;2131879;27;19972;-44
2022/09/03 05:00:23;;;;;;;;;;;;;;;;;;2131776;27;20052;-44
2022/09/03 05:01:23;;;;;;;;;;;;;;;;;;2131740;27;20013;-46
2022/09/03 05:02:24;;;;;;;;;;;;;;;;;;2131796;27;19980;-44
2022/09/03 05:03:26;;;;;;;;;;;;;;;;;;2131802;27;19923;-45
2022/09/03 05:04:27;;;;;;;;;;;;;;;;;;2131835;27;20443;-44
2022/09/03 05:05:28;;;;;;;;;;;;;;;;;;2131969;27;19923;-44
2022/09/03 05:06:29;;;;;;;;;;;;;;;;;;2131821;27;20310;-44
2022/09/03 05:07:37;;;;;;;;;;;;;;;;;;2131956;27;19962;-44
2022/09/03 05:08:39;;;;;;;;;;;;;;;;;;2131760;27;19923;-44
2022/09/03 05:09:39;;;;;;;;;;;;;;;;;;2131928;27;20328;-44
2022/09/03 05:10:40;;;;;;;;;;;;;;;;;;2131792;27;19931;-44
2022/09/03 05:11:41;;;;;;;;;;;;;;;;;;2131951;27;20014;-44
2022/09/03 05:12:42;;;;;;;;;;;;;;;;;;2131793;27;19927;-45
2022/09/03 05:13:43;;;;;;;;;;;;;;;;;;2131749;27;20443;-45
2022/09/03 05:14:45;;;;;;;;;;;;;;;;;;2131709;27;19967;-44
2022/09/03 05:15:45;;;;;;;;;;;;;;;;;;2131854;27;20117;-45
2022/09/03 05:16:46;;;;;;;;;;;;;;;;;;2131508;27;19988;-44
2022/09/03 05:17:53;;;;;;;;;;;;;;;;;;2131849;27;19972;-44
2022/09/03 05:18:54;;;;;;;;;;;;;;;;;;2131715;27;20375;-44
2022/09/03 05:19:54;;;;;;;;;;;;;;;;;;2131728;27;20013;-45
2022/09/03 05:20:55;;;;;;;;;;;;;;;;;;2131813;27;19952;-48
2022/09/03 05:21:56;;;;;;;;;;;;;;;;;;2131559;27;20279;-44
2022/09/03 05:22:57;;;;;;;;;;;;;;;;;;2131817;27;20010;-44
2022/09/03 05:23:58;;;;;;;;;;;;;;;;;;2131825;27;19923;-45
2022/09/03 05:24:59;;;;;;;;;;;;;;;;;;2131715;27;19929;-44
2022/09/03 05:26:00;;;;;;;;;;;;;;;;;;2131784;27;20037;-44
2022/09/03 05:27:01;;;;;;;;;;;;;;;;;;2131749;27;20276;-44
2022/09/03 05:28:02;;;;;;;;;;;;;;;;;;2131631;27;19923;-44
2022/09/03 05:29:04;;;;;;;;;;;;;;;;;;2131816;27;20048;-44
2022/09/03 05:30:06;;;;;;;;;;;;;;;;;;2131819;27;20344;-45
2022/09/03 05:31:06;;;;;;;;;;;;;;;;;;2131573;27;20002;-44
2022/09/03 05:32:07;;;;;;;;;;;;;;;;;;2131752;27;19954;-44
2022/09/03 05:33:08;;;;;;;;;;;;;;;;;;2131627;27;20018;-44
2022/09/03 05:34:09;;;;;;;;;;;;;;;;;;2131777;27;20347;-44
2022/09/03 05:35:16;;;;;;;;;;;;;;;;;;2131756;27;19923;-44
2022/09/03 05:36:17;;;;;;;;;;;;;;;;;;2131616;27;19930;-44
2022/09/03 05:37:18;;;;;;;;;;;;;;;;;;2131483;27;20265;-44
2022/09/03 05:38:19;;;;;;;;;;;;;;;;;;2131678;27;19930;-44
2022/09/03 05:39:20;;;;;;;;;;;;;;;;;;2131553;27;20380;-44
2022/09/03 05:40:21;;;;;;;;;;;;;;;;;;2131760;27;19930;-45
2022/09/03 05:41:22;;;;;;;;;;;;;;;;;;2131555;27;19923;-45
2022/09/03 05:42:23;;;;;;;;;;;;;;;;;;2131547;27;19934;-45
2022/09/03 05:43:24;;;;;;;;;;;;;;;;;;2131792;27;19954;-44
2022/09/03 05:44:25;;;;;;;;;;;;;;;;;;2131773;27;19969;-44
2022/09/03 05:45:25;;;;;;;;;;;;;;;;;;2131566;27;20374;-44
2022/09/03 05:46:30;;;;;;;;;;;;;;;;;;2131568;27;19929;-44
2022/09/03 05:47:31;;;;;;;;;;;;;;;;;;2131703;27;20017;-43
2022/09/03 05:48:32;;;;;;;;;;;;;;;;;;2131473;27;20568;-45
2022/09/03 05:49:33;;;;;;;;;;;;;;;;;;2131592;27;20022;-44
2022/09/03 05:50:34;;;;;;;;;;;;;;;;;;2131602;27;19924;-44
2022/09/03 05:51:34;;;;;;;;;;;;;;;;;;2132006;27;19923;-46
2022/09/03 05:52:35;;;;;;;;;;;;;;;;;;2131753;27;20019;-45
2022/09/03 05:53:36;;;;;;;;;;;;;;;;;;2131547;27;19967;-47
2022/09/03 05:54:38;;;;;;;;;;;;;;;;;;2131491;27;20493;-46
2022/09/03 05:55:39;;;;;;;;;;;;;;;;;;2132145;27;19962;-45
2022/09/03 05:56:41;;;;;;;;;;;;;;;;;;2132941;27;19974;-45
2022/09/03 05:57:42;;;;;;;;;;;;;;;;;;2133023;27;19923;-47
2022/09/03 05:58:44;;;;;;;;;;;;;;;;;;2133187;27;20021;-46
2022/09/03 05:59:44;;;;;;;;;;;;;;;;;;2133091;27;19930;-46
2022/09/03 06:00:45;;;;;;;;;;;;;;;;;;2133117;27;20288;-46
2022/09/03 06:01:48;;;;;;;;;;;;;;;;;;2132994;27;20359;-45
2022/09/03 06:02:51;;;;;;;;;;;;;;;;;;2133229;27;19923;-45
2022/09/03 06:03:53;;;;;;;;;;;;;;;;;;2132907;27;19927;-45
2022/09/03 06:04:54;;;;;;;;;;;;;;;;;;2133027;27;20359;-46
2022/09/03 06:05:56;;;;;;;;;;;;;;;;;;2133221;27;20439;-44
2022/09/03 06:06:57;;;;;;;;;;;;;;;;;;2132924;27;19930;-44
2022/09/03 06:07:58;;;;;;;;;;;;;;;;;;2133127;27;20009;-44
2022/09/03 06:08:59;;;;;;;;;;;;;;;;;;2132917;27;20429;-43
2022/09/03 06:09:59;;;;;;;;;;;;;;;;;;2132944;27;19923;-44
2022/09/03 06:11:02;;;;;;;;;;;;;;;;;;2132668;27;19923;-44
2022/09/03 06:12:03;;;;;;;;;;;;;;;;;;2124505;27;20455;-45
2022/09/03 06:13:04;;;;;;;;;;;;;;;;;;2129729;27;19958;-45
2022/09/03 06:14:05;;;;;;;;;;;;;;;;;;2133121;27;20287;-46
2022/09/03 06:15:06;;;;;;;;;;;;;;;;;;2133093;27;20486;-45
2022/09/03 06:16:07;;;;;;;;;;;;;;;;;;2132927;27;20093;-45
2022/09/03 06:17:10;;;;;;;;;;;;;;;;;;2132807;27;19927;-45
2022/09/03 06:18:10;;;;;;;;;;;;;;;;;;2132870;27;20012;-45
2022/09/03 06:19:13;;;;;;;;;;;;;;;;;;2133006;27;19947;-46
2022/09/03 06:20:13;;;;;;;;;;;;;;;;;;2132938;27;20291;-45
2022/09/03 06:21:14;;;;;;;;;;;;;;;;;;2132885;27;19923;-45
2022/09/03 06:22:16;;;;;;;;;;;;;;;;;;2132961;27;19962;-45
2022/09/03 06:23:17;;;;;;;;;;;;;;;;;;2133037;27;19924;-45
2022/09/03 06:24:17;;;;;;;;;;;;;;;;;;2132861;27;20022;-45
2022/09/03 06:25:18;;;;;;;;;;;;;;;;;;2132842;27;19923;-46
2022/09/03 06:26:19;;;;;;;;;;;;;;;;;;2133186;27;20022;-44
2022/09/03 06:27:20;;;;;;;;;;;;;;;;;;2132876;27;19923;-44
2022/09/03 06:28:21;;;;;;;;;;;;;;;;;;2133117;27;19931;-44
2022/09/03 06:29:23;;;;;;;;;;;;;;;;;;2132859;27;19923;-44
2022/09/03 06:30:25;;;;;;;;;;;;;;;;;;2132861;27;20374;-45
2022/09/03 06:31:26;;;;;;;;;;;;;;;;;;2132726;27;19930;-44
2022/09/03 06:32:28;;;;;;;;;;;;;;;;;;2132990;27;19930;-44
2022/09/03 06:33:30;;;;;;;;;;;;;;;;;;2132916;27;20010;-44
2022/09/03 06:34:31;;;;;;;;;;;;;;;;;;2132916;27;19930;-45
2022/09/03 06:35:32;;;;;;;;;;;;;;;;;;2132785;27;20293;-44
2022/09/03 06:36:36;;;;;;;;;;;;;;;;;;2132773;27;19927;-44
2022/09/03 06:37:37;;;;;;;;;;;;;;;;;;2132801;27;19976;-44
2022/09/03 06:38:37;;;;;;;;;;;;;;;;;;2132830;27;19923;-44
2022/09/03 06:39:38;;;;;;;;;;;;;;;;;;2132986;27;19923;-45
2022/09/03 06:40:39;;;;;;;;;;;;;;;;;;2133057;27;19930;-45
2022/09/03 06:41:40;;;;;;;;;;;;;;;;;;2132854;27;20386;-45
2022/09/03 06:42:41;;;;;;;;;;;;;;;;;;2132784;27;19923;-45
2022/09/03 06:43:42;;;;;;;;;;;;;;;;;;2132830;27;20123;-45
2022/09/03 06:44:44;;;;;;;;;;;;;;;;;;2132809;27;19927;-45
2022/09/03 06:45:45;;;;;;;;;;;;;;;;;;2132843;27;19973;-45
2022/09/03 06:46:47;;;;;;;;;;;;;;;;;;2132745;27;19924;-45
2022/09/03 06:47:48;;;;;;;;;;;;;;;;;;2132851;27;20014;-45
2022/09/03 06:48:49;;;;;;;;;;;;;;;;;;2132861;27;20009;-45
2022/09/03 06:49:50;;;;;;;;;;;;;;;;;;2132847;27;20018;-46
2022/09/03 06:50:51;;;;;;;;;;;;;;;;;;2132861;27;19923;-45
2022/09/03 06:51:52;;;;;;;;;;;;;;;;;;2133009;27;20017;-44
2022/09/03 06:52:53;;;;;;;;;;;;;;;;;;2132796;27;19962;-44
2022/09/03 06:53:56;;;;;;;;;;;;;;;;;;2132781;27;20181;-44
2022/09/03 06:54:57;;;;;;;;;;;;;;;;;;2132703;27;20014;-44
2022/09/03 06:55:58;;;;;;;;;;;;;;;;;;2132733;27;19965;-44
2022/09/03 06:56:59;;;;;;;;;;;;;;;;;;2132727;27;20351;-44
2022/09/03 06:58:00;;;;;;;;;;;;;;;;;;2132798;27;20018;-44
2022/09/03 06:59:01;;;;;;;;;;;;;;;;;;2132743;27;19939;-43
2022/09/03 07:00:03;;;;;;;;;;;;;;;;;;2132699;27;20257;-43